METAR Data
IDs: Format: Raw Decoded Include TAF

Data at: 1255 UTC 17 Sep 2019

METAR for:PADQ (Kodiak Arpt, AK, US)
Text:PADQ 171253Z AUTO 25005KT 10SM CLR 09/07 A2975 RMK AO2 SLP076 T00940067 TSNO $
Temperature: 9.4°C ( 49°F)
Dewpoint: 6.7°C ( 44°F) [RH = 83%]
Pressure (altimeter):29.75 inches Hg (1007.5 mb) [Sea level pressure: 1007.6 mb]
Winds:from the WSW (250 degrees) at 6 MPH (5 knots; 2.6 m/s)
Visibility:10 or more sm (16+ km)
Ceiling:at least 12,000 feet AGL
Clouds:sky clear below 12,000 feet AGL
QC Flag:automated observation with no human augmentation; SOME DATA ABOVE MAY BE INACCURATE!!!"$" is an indication the sensor requires maintenance.
Text:PADQ 171153Z AUTO 26007KT 10SM CLR 09/06 A2975 RMK AO2 SLP075 T00940061 10167 20089 51004 TSNO $
Temperature: 9.4°C ( 49°F)
Dewpoint: 6.1°C ( 43°F) [RH = 80%]
Pressure (altimeter):29.75 inches Hg (1007.5 mb) [Sea level pressure: 1007.5 mb]
Winds:from the W (260 degrees) at 8 MPH (7 knots; 3.6 m/s)
Visibility:10 or more sm (16+ km)
Ceiling:at least 12,000 feet AGL
Clouds:sky clear below 12,000 feet AGL
QC Flag:automated observation with no human augmentation; SOME DATA ABOVE MAY BE INACCURATE!!!"$" is an indication the sensor requires maintenance.
Text:PADQ 171053Z AUTO 27007KT 10SM CLR 09/06 A2975 RMK AO2 SLP075 T00940061 TSNO $
Temperature: 9.4°C ( 49°F)
Dewpoint: 6.1°C ( 43°F) [RH = 80%]
Pressure (altimeter):29.75 inches Hg (1007.5 mb) [Sea level pressure: 1007.5 mb]
Winds:from the W (270 degrees) at 8 MPH (7 knots; 3.6 m/s)
Visibility:10 or more sm (16+ km)
Ceiling:at least 12,000 feet AGL
Clouds:sky clear below 12,000 feet AGL
QC Flag:automated observation with no human augmentation; SOME DATA ABOVE MAY BE INACCURATE!!!"$" is an indication the sensor requires maintenance.
Text:PADQ 170953Z AUTO 28006KT 10SM CLR 10/06 A2975 RMK AO2 SLP074 T01000061 TSNO $
Temperature: 10.0°C ( 50°F)
Dewpoint: 6.1°C ( 43°F) [RH = 77%]
Pressure (altimeter):29.75 inches Hg (1007.5 mb) [Sea level pressure: 1007.4 mb]
Winds:from the W (280 degrees) at 7 MPH (6 knots; 3.1 m/s)
Visibility:10 or more sm (16+ km)
Ceiling:at least 12,000 feet AGL
Clouds:sky clear below 12,000 feet AGL
QC Flag:automated observation with no human augmentation; SOME DATA ABOVE MAY BE INACCURATE!!!"$" is an indication the sensor requires maintenance.
Text:PADQ 170853Z AUTO 00000KT 10SM CLR 12/06 A2974 RMK AO2 SLP071 T01170061 402000106 53013 TSNO $
Temperature: 11.7°C ( 53°F)
Dewpoint: 6.1°C ( 43°F) [RH = 68%]
Pressure (altimeter):29.74 inches Hg (1007.2 mb) [Sea level pressure: 1007.1 mb]
Winds:calm
Visibility:10 or more sm (16+ km)
Ceiling:at least 12,000 feet AGL
Clouds:sky clear below 12,000 feet AGL
QC Flag:automated observation with no human augmentation; SOME DATA ABOVE MAY BE INACCURATE!!!"$" is an indication the sensor requires maintenance.
Text:PADQ 170753Z AUTO 00000KT 10SM CLR 13/06 A2973 RMK AO2 SLP068 T01330056 TSNO $
Temperature: 13.3°C ( 56°F)
Dewpoint: 5.6°C ( 42°F) [RH = 60%]
Pressure (altimeter):29.73 inches Hg (1006.9 mb) [Sea level pressure: 1006.8 mb]
Winds:calm
Visibility:10 or more sm (16+ km)
Ceiling:at least 12,000 feet AGL
Clouds:sky clear below 12,000 feet AGL
QC Flag:automated observation with no human augmentation; SOME DATA ABOVE MAY BE INACCURATE!!!"$" is an indication the sensor requires maintenance.

TAF for:PADQ (Kodiak Arpt, AK, US) issued at 1140 UTC 17 Sep 2019
Text:PADQ 171140Z 1712/1812 27007KT P6SM SKC
Forecast period:1200 to 1800 UTC 17 September 2019
Forecast type:FROM: standard forecast or significant change
Winds:from the W (270 degrees) at 8 MPH (7 knots; 3.6 m/s)
Visibility:6 or more sm (10+ km)
Ceiling:at least 12,000 feet AGL
Clouds:clear skies
Text:FM171800 12007KT P6SM VCSH SCT050 BKN100
Forecast period:1800 to 2100 UTC 17 September 2019
Forecast type:FROM: standard forecast or significant change
Winds:from the ESE (120 degrees) at 8 MPH (7 knots; 3.6 m/s)
Visibility:6 or more sm (10+ km)
Ceiling:10000 feet AGL
Clouds: scattered clouds at 5000 feet AGL, broken clouds at 10000 feet AGL
Weather:VCSH (showers in vicinity)
Text:FM172100 12008KT P6SM -RA BKN040 OVC080
Forecast period:2100 UTC 17 September 2019 to 0800 UTC 18 September 2019
Forecast type:FROM: standard forecast or significant change
Winds:from the ESE (120 degrees) at 9 MPH (8 knots; 4.1 m/s)
Visibility:6 or more sm (10+ km)
Ceiling:4000 feet AGL
Clouds: broken clouds at 4000 feet AGL, overcast cloud deck at 8000 feet AGL
Weather:-RA (light rain)
Text:FM180800 13010KT 4SM -RA BR OVC007
Forecast period:0800 to 1200 UTC 18 September 2019
Forecast type:FROM: standard forecast or significant change
Winds:from the SE (130 degrees) at 12 MPH (10 knots; 5.1 m/s)
Visibility: 4 sm ( 6 km)
Ceiling:700 feet AGL
Clouds: overcast cloud deck at 700 feet AGL
Weather:-RA BR (light rain, mist)